sensor_id;sensor_type;location;lat;lon;timestamp;P1;durP1;ratioP1;P2;durP2;ratioP2
19554;SDS011;9924;50.828;6.440;2022-08-19T00:00:26;11.30;;;9.23;;
19554;SDS011;9924;50.828;6.440;2022-08-19T00:02:52;10.95;;;8.55;;
19554;SDS011;9924;50.828;6.440;2022-08-19T00:05:19;9.38;;;8.13;;
19554;SDS011;9924;50.828;6.440;2022-08-19T00:07:46;10.77;;;8.05;;
19554;SDS011;9924;50.828;6.440;2022-08-19T00:10:12;9.65;;;8.02;;
19554;SDS011;9924;50.828;6.440;2022-08-19T00:12:39;13.02;;;8.73;;
19554;SDS011;9924;50.828;6.440;2022-08-19T00:15:06;12.05;;;8.43;;
19554;SDS011;9924;50.828;6.440;2022-08-19T00:17:36;10.02;;;8.55;;
19554;SDS011;9924;50.828;6.440;2022-08-19T00:20:03;10.40;;;8.43;;
19554;SDS011;9924;50.828;6.440;2022-08-19T00:22:29;9.75;;;8.15;;
19554;SDS011;9924;50.828;6.440;2022-08-19T00:24:54;12.15;;;8.95;;
19554;SDS011;9924;50.828;6.440;2022-08-19T00:27:20;13.25;;;8.93;;
19554;SDS011;9924;50.828;6.440;2022-08-19T00:29:46;10.73;;;8.77;;
19554;SDS011;9924;50.828;6.440;2022-08-19T00:32:12;10.63;;;8.90;;
19554;SDS011;9924;50.828;6.440;2022-08-19T00:34:37;11.77;;;8.57;;
19554;SDS011;9924;50.828;6.440;2022-08-19T00:37:03;12.20;;;9.48;;
19554;SDS011;9924;50.828;6.440;2022-08-19T00:39:29;10.80;;;8.85;;
19554;SDS011;9924;50.828;6.440;2022-08-19T00:41:55;9.80;;;8.27;;
19554;SDS011;9924;50.828;6.440;2022-08-19T00:44:23;12.65;;;9.73;;
19554;SDS011;9924;50.828;6.440;2022-08-19T00:46:54;10.48;;;9.25;;
19554;SDS011;9924;50.828;6.440;2022-08-19T00:49:23;17.10;;;9.73;;
19554;SDS011;9924;50.828;6.440;2022-08-19T00:51:55;13.43;;;10.52;;
19554;SDS011;9924;50.828;6.440;2022-08-19T00:54:28;13.77;;;10.32;;
19554;SDS011;9924;50.828;6.440;2022-08-19T00:56:56;16.30;;;10.73;;
19554;SDS011;9924;50.828;6.440;2022-08-19T00:59:24;11.15;;;9.10;;
19554;SDS011;9924;50.828;6.440;2022-08-19T01:01:50;14.52;;;10.23;;
19554;SDS011;9924;50.828;6.440;2022-08-19T01:04:17;12.35;;;9.68;;
19554;SDS011;9924;50.828;6.440;2022-08-19T01:06:42;13.65;;;9.68;;
19554;SDS011;9924;50.828;6.440;2022-08-19T01:09:08;13.40;;;10.13;;
19554;SDS011;9924;50.828;6.440;2022-08-19T01:11:35;11.45;;;9.70;;
19554;SDS011;9924;50.828;6.440;2022-08-19T01:14:04;13.57;;;9.68;;
19554;SDS011;9924;50.828;6.440;2022-08-19T01:16:31;13.93;;;9.25;;
19554;SDS011;9924;50.828;6.440;2022-08-19T01:18:58;13.60;;;10.32;;
19554;SDS011;9924;50.828;6.440;2022-08-19T01:23:57;9.45;;;8.13;;
19554;SDS011;9924;50.828;6.440;2022-08-19T01:26:24;11.60;;;9.23;;
19554;SDS011;9924;50.828;6.440;2022-08-19T01:28:51;10.63;;;9.30;;
19554;SDS011;9924;50.828;6.440;2022-08-19T01:31:20;12.27;;;10.10;;
19554;SDS011;9924;50.828;6.440;2022-08-19T01:33:52;11.23;;;9.05;;
19554;SDS011;9924;50.828;6.440;2022-08-19T01:36:24;11.00;;;9.45;;
19554;SDS011;9924;50.828;6.440;2022-08-19T01:38:58;12.23;;;9.27;;
19554;SDS011;9924;50.828;6.440;2022-08-19T01:41:24;13.23;;;9.60;;
19554;SDS011;9924;50.828;6.440;2022-08-19T01:43:51;12.30;;;9.23;;
19554;SDS011;9924;50.828;6.440;2022-08-19T01:46:18;11.80;;;9.13;;
19554;SDS011;9924;50.828;6.440;2022-08-19T01:48:44;12.40;;;9.43;;
19554;SDS011;9924;50.828;6.440;2022-08-19T01:51:10;15.77;;;11.02;;
19554;SDS011;9924;50.828;6.440;2022-08-19T01:53:37;13.27;;;10.77;;
19554;SDS011;9924;50.828;6.440;2022-08-19T01:56:04;11.57;;;10.07;;
19554;SDS011;9924;50.828;6.440;2022-08-19T01:58:32;15.32;;;10.40;;
19554;SDS011;9924;50.828;6.440;2022-08-19T02:01:02;13.18;;;10.02;;
19554;SDS011;9924;50.828;6.440;2022-08-19T02:03:28;14.00;;;10.07;;
19554;SDS011;9924;50.828;6.440;2022-08-19T02:05:55;12.52;;;10.02;;
19554;SDS011;9924;50.828;6.440;2022-08-19T02:08:24;16.42;;;11.50;;
19554;SDS011;9924;50.828;6.440;2022-08-19T02:10:51;15.05;;;11.93;;
19554;SDS011;9924;50.828;6.440;2022-08-19T02:13:17;13.75;;;11.20;;
19554;SDS011;9924;50.828;6.440;2022-08-19T02:15:43;17.10;;;11.65;;
19554;SDS011;9924;50.828;6.440;2022-08-19T02:18:09;14.32;;;12.30;;
19554;SDS011;9924;50.828;6.440;2022-08-19T02:20:36;15.73;;;12.98;;
19554;SDS011;9924;50.828;6.440;2022-08-19T02:23:03;19.35;;;14.32;;
19554;SDS011;9924;50.828;6.440;2022-08-19T02:25:29;17.70;;;13.95;;
19554;SDS011;9924;50.828;6.440;2022-08-19T02:27:55;18.65;;;15.32;;
19554;SDS011;9924;50.828;6.440;2022-08-19T02:30:21;21.40;;;16.35;;
19554;SDS011;9924;50.828;6.440;2022-08-19T02:32:47;29.30;;;16.23;;
19554;SDS011;9924;50.828;6.440;2022-08-19T02:35:13;21.13;;;16.63;;
19554;SDS011;9924;50.828;6.440;2022-08-19T02:37:40;18.23;;;14.57;;
19554;SDS011;9924;50.828;6.440;2022-08-19T02:40:26;22.08;;;16.58;;
19554;SDS011;9924;50.828;6.440;2022-08-19T02:42:52;20.65;;;15.05;;
19554;SDS011;9924;50.828;6.440;2022-08-19T02:45:18;26.45;;;18.80;;
19554;SDS011;9924;50.828;6.440;2022-08-19T02:47:44;24.45;;;17.73;;
19554;SDS011;9924;50.828;6.440;2022-08-19T02:50:10;30.50;;;20.92;;
19554;SDS011;9924;50.828;6.440;2022-08-19T02:52:36;28.77;;;21.70;;
19554;SDS011;9924;50.828;6.440;2022-08-19T02:55:02;33.20;;;23.00;;
19554;SDS011;9924;50.828;6.440;2022-08-19T02:57:29;27.08;;;20.35;;
19554;SDS011;9924;50.828;6.440;2022-08-19T02:59:56;31.67;;;22.38;;
19554;SDS011;9924;50.828;6.440;2022-08-19T03:02:22;29.33;;;22.42;;
19554;SDS011;9924;50.828;6.440;2022-08-19T03:04:48;27.83;;;20.42;;
19554;SDS011;9924;50.828;6.440;2022-08-19T03:07:15;30.65;;;21.52;;
19554;SDS011;9924;50.828;6.440;2022-08-19T03:09:42;24.30;;;19.45;;
19554;SDS011;9924;50.828;6.440;2022-08-19T03:12:08;29.33;;;22.10;;
19554;SDS011;9924;50.828;6.440;2022-08-19T03:14:34;25.30;;;20.38;;
19554;SDS011;9924;50.828;6.440;2022-08-19T03:17:00;29.02;;;21.42;;
19554;SDS011;9924;50.828;6.440;2022-08-19T03:19:28;26.90;;;19.98;;
19554;SDS011;9924;50.828;6.440;2022-08-19T03:21:53;25.25;;;18.92;;
19554;SDS011;9924;50.828;6.440;2022-08-19T03:24:20;25.85;;;20.23;;
19554;SDS011;9924;50.828;6.440;2022-08-19T03:26:47;23.92;;;19.02;;
19554;SDS011;9924;50.828;6.440;2022-08-19T03:29:16;26.85;;;20.48;;
19554;SDS011;9924;50.828;6.440;2022-08-19T03:31:43;28.17;;;20.63;;
19554;SDS011;9924;50.828;6.440;2022-08-19T03:34:10;28.45;;;21.83;;
19554;SDS011;9924;50.828;6.440;2022-08-19T03:36:37;29.30;;;21.55;;
19554;SDS011;9924;50.828;6.440;2022-08-19T03:39:03;29.50;;;22.60;;
19554;SDS011;9924;50.828;6.440;2022-08-19T03:41:30;29.33;;;22.95;;
19554;SDS011;9924;50.828;6.440;2022-08-19T03:44:01;32.72;;;23.10;;
19554;SDS011;9924;50.828;6.440;2022-08-19T03:46:28;32.05;;;23.60;;
19554;SDS011;9924;50.828;6.440;2022-08-19T03:48:56;37.13;;;26.60;;
19554;SDS011;9924;50.828;6.440;2022-08-19T03:51:27;34.25;;;25.70;;
19554;SDS011;9924;50.828;6.440;2022-08-19T03:53:58;41.25;;;27.13;;
19554;SDS011;9924;50.828;6.440;2022-08-19T03:56:26;40.33;;;25.67;;
19554;SDS011;9924;50.828;6.440;2022-08-19T03:58:56;34.78;;;25.30;;
19554;SDS011;9924;50.828;6.440;2022-08-19T04:01:25;33.55;;;25.13;;
19554;SDS011;9924;50.828;6.440;2022-08-19T04:03:53;35.50;;;25.33;;
19554;SDS011;9924;50.828;6.440;2022-08-19T04:06:25;34.83;;;24.08;;
19554;SDS011;9924;50.828;6.440;2022-08-19T04:08:52;34.33;;;25.60;;
19554;SDS011;9924;50.828;6.440;2022-08-19T04:11:23;34.13;;;24.92;;
19554;SDS011;9924;50.828;6.440;2022-08-19T04:13:52;36.05;;;26.15;;
19554;SDS011;9924;50.828;6.440;2022-08-19T04:16:19;35.67;;;25.98;;
19554;SDS011;9924;50.828;6.440;2022-08-19T04:18:47;37.70;;;26.45;;
19554;SDS011;9924;50.828;6.440;2022-08-19T04:21:17;39.47;;;26.85;;
19554;SDS011;9924;50.828;6.440;2022-08-19T04:23:45;36.00;;;25.13;;
19554;SDS011;9924;50.828;6.440;2022-08-19T04:26:15;31.10;;;23.67;;
19554;SDS011;9924;50.828;6.440;2022-08-19T04:28:43;40.15;;;26.83;;
19554;SDS011;9924;50.828;6.440;2022-08-19T04:31:14;35.92;;;25.58;;
19554;SDS011;9924;50.828;6.440;2022-08-19T04:33:41;34.45;;;24.60;;
19554;SDS011;9924;50.828;6.440;2022-08-19T04:36:07;34.53;;;23.70;;
19554;SDS011;9924;50.828;6.440;2022-08-19T04:38:41;34.53;;;26.10;;
19554;SDS011;9924;50.828;6.440;2022-08-19T04:41:06;35.10;;;26.15;;
19554;SDS011;9924;50.828;6.440;2022-08-19T04:43:50;35.05;;;25.08;;
19554;SDS011;9924;50.828;6.440;2022-08-19T04:46:16;36.83;;;25.15;;
19554;SDS011;9924;50.828;6.440;2022-08-19T04:48:42;42.47;;;28.90;;
19554;SDS011;9924;50.828;6.440;2022-08-19T04:51:09;36.83;;;24.77;;
19554;SDS011;9924;50.828;6.440;2022-08-19T04:53:38;38.60;;;27.33;;
19554;SDS011;9924;50.828;6.440;2022-08-19T04:56:06;47.15;;;28.55;;
19554;SDS011;9924;50.828;6.440;2022-08-19T04:58:34;43.53;;;29.08;;
19554;SDS011;9924;50.828;6.440;2022-08-19T05:01:01;48.22;;;33.70;;
19554;SDS011;9924;50.828;6.440;2022-08-19T05:03:28;51.92;;;33.33;;
19554;SDS011;9924;50.828;6.440;2022-08-19T05:05:58;50.38;;;33.20;;
19554;SDS011;9924;50.828;6.440;2022-08-19T05:08:32;49.97;;;32.60;;
19554;SDS011;9924;50.828;6.440;2022-08-19T05:10:59;54.70;;;33.35;;
19554;SDS011;9924;50.828;6.440;2022-08-19T05:13:25;53.13;;;34.00;;
19554;SDS011;9924;50.828;6.440;2022-08-19T05:15:57;53.75;;;34.85;;
19554;SDS011;9924;50.828;6.440;2022-08-19T05:18:24;50.63;;;33.10;;
19554;SDS011;9924;50.828;6.440;2022-08-19T05:21:13;58.40;;;34.20;;
19554;SDS011;9924;50.828;6.440;2022-08-19T05:23:59;64.00;;;37.60;;
19554;SDS011;9924;50.828;6.440;2022-08-19T05:26:25;63.75;;;37.55;;
19554;SDS011;9924;50.828;6.440;2022-08-19T05:28:52;74.32;;;39.60;;
19554;SDS011;9924;50.828;6.440;2022-08-19T05:31:18;69.15;;;39.17;;
19554;SDS011;9924;50.828;6.440;2022-08-19T05:33:44;64.82;;;37.13;;
19554;SDS011;9924;50.828;6.440;2022-08-19T05:36:10;68.45;;;38.63;;
19554;SDS011;9924;50.828;6.440;2022-08-19T05:38:36;67.47;;;37.80;;
19554;SDS011;9924;50.828;6.440;2022-08-19T05:41:06;64.55;;;36.17;;
19554;SDS011;9924;50.828;6.440;2022-08-19T05:43:33;67.82;;;37.33;;
19554;SDS011;9924;50.828;6.440;2022-08-19T05:45:59;62.17;;;37.30;;
19554;SDS011;9924;50.828;6.440;2022-08-19T05:48:25;63.50;;;36.65;;
19554;SDS011;9924;50.828;6.440;2022-08-19T05:50:51;68.55;;;37.55;;
19554;SDS011;9924;50.828;6.440;2022-08-19T05:53:17;68.10;;;37.97;;
19554;SDS011;9924;50.828;6.440;2022-08-19T05:55:43;68.10;;;37.60;;
19554;SDS011;9924;50.828;6.440;2022-08-19T05:58:09;69.65;;;37.85;;
19554;SDS011;9924;50.828;6.440;2022-08-19T06:00:35;72.35;;;39.58;;
19554;SDS011;9924;50.828;6.440;2022-08-19T06:03:02;69.32;;;39.10;;
19554;SDS011;9924;50.828;6.440;2022-08-19T06:05:31;73.35;;;39.50;;
19554;SDS011;9924;50.828;6.440;2022-08-19T06:07:57;67.35;;;38.53;;
19554;SDS011;9924;50.828;6.440;2022-08-19T06:10:27;68.10;;;39.53;;
19554;SDS011;9924;50.828;6.440;2022-08-19T06:12:53;69.28;;;38.88;;
19554;SDS011;9924;50.828;6.440;2022-08-19T06:15:21;69.97;;;39.60;;
19554;SDS011;9924;50.828;6.440;2022-08-19T06:17:50;70.68;;;40.75;;
19554;SDS011;9924;50.828;6.440;2022-08-19T06:20:16;67.78;;;38.17;;
19554;SDS011;9924;50.828;6.440;2022-08-19T06:22:45;70.00;;;40.28;;
19554;SDS011;9924;50.828;6.440;2022-08-19T06:25:12;74.05;;;40.95;;
19554;SDS011;9924;50.828;6.440;2022-08-19T06:27:42;71.97;;;40.78;;
19554;SDS011;9924;50.828;6.440;2022-08-19T06:30:09;73.07;;;39.55;;
19554;SDS011;9924;50.828;6.440;2022-08-19T06:32:37;66.90;;;39.78;;
19554;SDS011;9924;50.828;6.440;2022-08-19T06:35:03;69.68;;;38.90;;
19554;SDS011;9924;50.828;6.440;2022-08-19T06:37:29;78.43;;;41.75;;
19554;SDS011;9924;50.828;6.440;2022-08-19T06:39:56;78.32;;;41.05;;
19554;SDS011;9924;50.828;6.440;2022-08-19T06:42:21;75.22;;;40.83;;
19554;SDS011;9924;50.828;6.440;2022-08-19T06:44:47;84.82;;;42.85;;
19554;SDS011;9924;50.828;6.440;2022-08-19T06:47:16;80.07;;;43.78;;
19554;SDS011;9924;50.828;6.440;2022-08-19T06:49:44;74.38;;;40.92;;
19554;SDS011;9924;50.828;6.440;2022-08-19T06:52:11;72.45;;;40.13;;
19554;SDS011;9924;50.828;6.440;2022-08-19T06:54:38;73.28;;;39.60;;
19554;SDS011;9924;50.828;6.440;2022-08-19T06:57:04;66.57;;;39.40;;
19554;SDS011;9924;50.828;6.440;2022-08-19T06:59:34;65.07;;;37.45;;
19554;SDS011;9924;50.828;6.440;2022-08-19T07:02:02;68.78;;;39.97;;
19554;SDS011;9924;50.828;6.440;2022-08-19T07:04:32;69.05;;;39.75;;
19554;SDS011;9924;50.828;6.440;2022-08-19T07:07:03;64.72;;;37.72;;
19554;SDS011;9924;50.828;6.440;2022-08-19T07:09:33;64.82;;;36.70;;
19554;SDS011;9924;50.828;6.440;2022-08-19T07:11:58;62.83;;;35.25;;
19554;SDS011;9924;50.828;6.440;2022-08-19T07:14:26;59.42;;;34.42;;
19554;SDS011;9924;50.828;6.440;2022-08-19T07:16:53;60.90;;;36.00;;
19554;SDS011;9924;50.828;6.440;2022-08-19T07:19:20;53.95;;;33.22;;
19554;SDS011;9924;50.828;6.440;2022-08-19T07:21:48;55.03;;;31.85;;
19554;SDS011;9924;50.828;6.440;2022-08-19T07:24:17;48.83;;;28.73;;
19554;SDS011;9924;50.828;6.440;2022-08-19T07:26:44;43.08;;;26.65;;
19554;SDS011;9924;50.828;6.440;2022-08-19T07:29:11;39.13;;;25.13;;
19554;SDS011;9924;50.828;6.440;2022-08-19T07:31:38;35.50;;;23.38;;
19554;SDS011;9924;50.828;6.440;2022-08-19T07:34:04;37.45;;;22.88;;
19554;SDS011;9924;50.828;6.440;2022-08-19T07:36:31;27.80;;;19.65;;
19554;SDS011;9924;50.828;6.440;2022-08-19T07:38:58;25.55;;;17.95;;
19554;SDS011;9924;50.828;6.440;2022-08-19T07:41:26;22.70;;;15.85;;
19554;SDS011;9924;50.828;6.440;2022-08-19T07:43:53;21.65;;;15.38;;
19554;SDS011;9924;50.828;6.440;2022-08-19T07:46:19;19.13;;;13.90;;
19554;SDS011;9924;50.828;6.440;2022-08-19T07:48:46;17.77;;;13.25;;
19554;SDS011;9924;50.828;6.440;2022-08-19T07:51:15;20.20;;;14.15;;
19554;SDS011;9924;50.828;6.440;2022-08-19T07:53:43;20.88;;;13.07;;
19554;SDS011;9924;50.828;6.440;2022-08-19T07:56:12;15.60;;;10.85;;
19554;SDS011;9924;50.828;6.440;2022-08-19T07:58:39;17.67;;;12.77;;
19554;SDS011;9924;50.828;6.440;2022-08-19T08:01:08;15.35;;;11.27;;
19554;SDS011;9924;50.828;6.440;2022-08-19T08:03:40;15.95;;;10.35;;
19554;SDS011;9924;50.828;6.440;2022-08-19T08:06:25;19.17;;;12.93;;
19554;SDS011;9924;50.828;6.440;2022-08-19T08:09:10;16.50;;;11.88;;
19554;SDS011;9924;50.828;6.440;2022-08-19T08:11:48;19.25;;;11.65;;
19554;SDS011;9924;50.828;6.440;2022-08-19T08:14:25;19.40;;;13.02;;
19554;SDS011;9924;50.828;6.440;2022-08-19T08:16:52;22.27;;;15.48;;
19554;SDS011;9924;50.828;6.440;2022-08-19T08:19:19;21.50;;;14.77;;
19554;SDS011;9924;50.828;6.440;2022-08-19T08:21:46;25.55;;;17.02;;
19554;SDS011;9924;50.828;6.440;2022-08-19T08:24:13;22.73;;;16.45;;
19554;SDS011;9924;50.828;6.440;2022-08-19T08:26:39;21.77;;;14.90;;
19554;SDS011;9924;50.828;6.440;2022-08-19T08:29:06;20.95;;;15.30;;
19554;SDS011;9924;50.828;6.440;2022-08-19T08:31:34;20.90;;;15.43;;
19554;SDS011;9924;50.828;6.440;2022-08-19T08:34:00;22.75;;;15.43;;
19554;SDS011;9924;50.828;6.440;2022-08-19T08:36:26;24.65;;;14.55;;
19554;SDS011;9924;50.828;6.440;2022-08-19T08:38:52;25.33;;;15.73;;
19554;SDS011;9924;50.828;6.440;2022-08-19T08:41:22;22.55;;;16.02;;
19554;SDS011;9924;50.828;6.440;2022-08-19T08:44:20;27.42;;;16.13;;
19554;SDS011;9924;50.828;6.440;2022-08-19T08:46:53;23.63;;;15.80;;
19554;SDS011;9924;50.828;6.440;2022-08-19T08:49:29;27.27;;;17.52;;
19554;SDS011;9924;50.828;6.440;2022-08-19T08:52:15;26.30;;;17.90;;
19554;SDS011;9924;50.828;6.440;2022-08-19T08:55:07;26.13;;;16.65;;
19554;SDS011;9924;50.828;6.440;2022-08-19T08:57:42;31.13;;;18.63;;
19554;SDS011;9924;50.828;6.440;2022-08-19T09:00:20;26.30;;;16.23;;
19554;SDS011;9924;50.828;6.440;2022-08-19T09:02:49;32.35;;;19.33;;
19554;SDS011;9924;50.828;6.440;2022-08-19T09:05:15;36.25;;;20.63;;
19554;SDS011;9924;50.828;6.440;2022-08-19T09:07:46;27.02;;;19.92;;
19554;SDS011;9924;50.828;6.440;2022-08-19T09:15:52;35.80;;;20.75;;
19554;SDS011;9924;50.828;6.440;2022-08-19T09:18:23;28.95;;;20.48;;
19554;SDS011;9924;50.828;6.440;2022-08-19T09:20:48;28.92;;;19.75;;
19554;SDS011;9924;50.828;6.440;2022-08-19T09:23:15;27.50;;;19.58;;
19554;SDS011;9924;50.828;6.440;2022-08-19T09:25:40;29.08;;;20.45;;
19554;SDS011;9924;50.828;6.440;2022-08-19T09:28:07;28.25;;;20.70;;
19554;SDS011;9924;50.828;6.440;2022-08-19T09:30:34;27.23;;;19.48;;
19554;SDS011;9924;50.828;6.440;2022-08-19T09:33:05;29.48;;;20.40;;
19554;SDS011;9924;50.828;6.440;2022-08-19T09:35:31;25.33;;;18.55;;
19554;SDS011;9924;50.828;6.440;2022-08-19T09:37:58;24.42;;;18.15;;
19554;SDS011;9924;50.828;6.440;2022-08-19T09:40:29;22.52;;;15.57;;
19554;SDS011;9924;50.828;6.440;2022-08-19T09:42:55;19.30;;;14.77;;
19554;SDS011;9924;50.828;6.440;2022-08-19T09:45:22;23.58;;;16.60;;
19554;SDS011;9924;50.828;6.440;2022-08-19T09:47:51;26.85;;;19.02;;
19554;SDS011;9924;50.828;6.440;2022-08-19T09:50:18;28.15;;;18.23;;
19554;SDS011;9924;50.828;6.440;2022-08-19T09:52:44;20.65;;;16.08;;
19554;SDS011;9924;50.828;6.440;2022-08-19T09:55:11;30.23;;;21.80;;
19554;SDS011;9924;50.828;6.440;2022-08-19T09:57:37;27.75;;;18.75;;
19554;SDS011;9924;50.828;6.440;2022-08-19T10:00:04;31.95;;;21.00;;
19554;SDS011;9924;50.828;6.440;2022-08-19T10:02:32;30.10;;;20.85;;
19554;SDS011;9924;50.828;6.440;2022-08-19T10:04:58;26.02;;;19.30;;
19554;SDS011;9924;50.828;6.440;2022-08-19T10:07:42;31.40;;;20.80;;
19554;SDS011;9924;50.828;6.440;2022-08-19T10:10:08;30.92;;;22.40;;
19554;SDS011;9924;50.828;6.440;2022-08-19T10:12:34;30.05;;;21.40;;
19554;SDS011;9924;50.828;6.440;2022-08-19T10:15:00;32.28;;;22.13;;
19554;SDS011;9924;50.828;6.440;2022-08-19T10:17:26;26.20;;;19.33;;
19554;SDS011;9924;50.828;6.440;2022-08-19T10:19:53;28.92;;;20.52;;
19554;SDS011;9924;50.828;6.440;2022-08-19T10:22:19;30.73;;;23.50;;
19554;SDS011;9924;50.828;6.440;2022-08-19T10:24:45;29.55;;;19.67;;
19554;SDS011;9924;50.828;6.440;2022-08-19T10:27:11;30.20;;;22.83;;
19554;SDS011;9924;50.828;6.440;2022-08-19T10:29:38;29.25;;;20.67;;
19554;SDS011;9924;50.828;6.440;2022-08-19T10:32:05;27.92;;;19.77;;
19554;SDS011;9924;50.828;6.440;2022-08-19T10:34:34;29.63;;;21.38;;
19554;SDS011;9924;50.828;6.440;2022-08-19T10:37:02;32.42;;;22.23;;
19554;SDS011;9924;50.828;6.440;2022-08-19T10:39:31;31.00;;;20.55;;
19554;SDS011;9924;50.828;6.440;2022-08-19T10:41:58;32.67;;;21.95;;
19554;SDS011;9924;50.828;6.440;2022-08-19T10:44:24;30.38;;;19.25;;
19554;SDS011;9924;50.828;6.440;2022-08-19T10:46:51;28.45;;;19.10;;
19554;SDS011;9924;50.828;6.440;2022-08-19T10:49:17;28.63;;;19.85;;
19554;SDS011;9924;50.828;6.440;2022-08-19T10:51:44;28.23;;;19.38;;
19554;SDS011;9924;50.828;6.440;2022-08-19T10:54:28;32.38;;;22.70;;
19554;SDS011;9924;50.828;6.440;2022-08-19T10:57:13;29.02;;;19.95;;
19554;SDS011;9924;50.828;6.440;2022-08-19T10:59:41;28.50;;;19.58;;
19554;SDS011;9924;50.828;6.440;2022-08-19T11:02:08;29.30;;;19.15;;
19554;SDS011;9924;50.828;6.440;2022-08-19T11:04:36;27.98;;;18.52;;
19554;SDS011;9924;50.828;6.440;2022-08-19T11:07:02;27.70;;;17.85;;
19554;SDS011;9924;50.828;6.440;2022-08-19T11:09:29;21.48;;;16.23;;
19554;SDS011;9924;50.828;6.440;2022-08-19T11:11:56;28.58;;;19.70;;
19554;SDS011;9924;50.828;6.440;2022-08-19T11:14:22;28.65;;;20.60;;
19554;SDS011;9924;50.828;6.440;2022-08-19T11:16:50;26.90;;;19.73;;
19554;SDS011;9924;50.828;6.440;2022-08-19T11:19:18;24.15;;;17.08;;
19554;SDS011;9924;50.828;6.440;2022-08-19T11:21:45;23.30;;;16.90;;
19554;SDS011;9924;50.828;6.440;2022-08-19T11:24:14;24.48;;;16.52;;
19554;SDS011;9924;50.828;6.440;2022-08-19T11:26:44;24.63;;;16.50;;
19554;SDS011;9924;50.828;6.440;2022-08-19T11:29:11;26.73;;;18.05;;
19554;SDS011;9924;50.828;6.440;2022-08-19T11:31:39;23.77;;;16.45;;
19554;SDS011;9924;50.828;6.440;2022-08-19T11:34:08;25.30;;;16.02;;
19554;SDS011;9924;50.828;6.440;2022-08-19T11:36:37;21.25;;;16.13;;
19554;SDS011;9924;50.828;6.440;2022-08-19T11:39:06;24.08;;;16.50;;
19554;SDS011;9924;50.828;6.440;2022-08-19T11:41:32;20.10;;;14.55;;
19554;SDS011;9924;50.828;6.440;2022-08-19T11:43:59;23.02;;;15.68;;
19554;SDS011;9924;50.828;6.440;2022-08-19T11:46:26;19.00;;;13.30;;
19554;SDS011;9924;50.828;6.440;2022-08-19T11:48:55;17.83;;;12.02;;
19554;SDS011;9924;50.828;6.440;2022-08-19T11:51:22;20.58;;;12.82;;
19554;SDS011;9924;50.828;6.440;2022-08-19T11:53:50;20.10;;;13.25;;
19554;SDS011;9924;50.828;6.440;2022-08-19T11:56:17;20.73;;;14.20;;
19554;SDS011;9924;50.828;6.440;2022-08-19T11:58:44;18.75;;;12.77;;
19554;SDS011;9924;50.828;6.440;2022-08-19T12:01:10;16.08;;;11.15;;
19554;SDS011;9924;50.828;6.440;2022-08-19T12:03:40;18.95;;;13.77;;
19554;SDS011;9924;50.828;6.440;2022-08-19T12:06:06;17.40;;;13.35;;
19554;SDS011;9924;50.828;6.440;2022-08-19T12:08:34;14.88;;;11.13;;
19554;SDS011;9924;50.828;6.440;2022-08-19T12:11:00;19.58;;;12.68;;
19554;SDS011;9924;50.828;6.440;2022-08-19T12:13:27;18.25;;;11.80;;
19554;SDS011;9924;50.828;6.440;2022-08-19T12:15:53;17.13;;;11.55;;
19554;SDS011;9924;50.828;6.440;2022-08-19T12:18:19;13.23;;;9.93;;
19554;SDS011;9924;50.828;6.440;2022-08-19T12:20:45;16.95;;;10.98;;
19554;SDS011;9924;50.828;6.440;2022-08-19T12:23:12;14.60;;;10.52;;
19554;SDS011;9924;50.828;6.440;2022-08-19T12:25:45;15.23;;;9.73;;
19554;SDS011;9924;50.828;6.440;2022-08-19T12:28:17;15.07;;;10.68;;
19554;SDS011;9924;50.828;6.440;2022-08-19T12:30:47;17.08;;;12.18;;
19554;SDS011;9924;50.828;6.440;2022-08-19T12:33:13;15.07;;;10.80;;
19554;SDS011;9924;50.828;6.440;2022-08-19T12:35:40;16.65;;;11.50;;
19554;SDS011;9924;50.828;6.440;2022-08-19T12:38:07;14.68;;;10.68;;
19554;SDS011;9924;50.828;6.440;2022-08-19T12:40:33;15.85;;;11.23;;
19554;SDS011;9924;50.828;6.440;2022-08-19T12:42:59;17.83;;;12.15;;
19554;SDS011;9924;50.828;6.440;2022-08-19T12:45:29;19.27;;;13.43;;
19554;SDS011;9924;50.828;6.440;2022-08-19T12:47:55;15.65;;;10.40;;
19554;SDS011;9924;50.828;6.440;2022-08-19T12:50:20;17.55;;;11.65;;
19554;SDS011;9924;50.828;6.440;2022-08-19T12:52:46;18.63;;;13.65;;
19554;SDS011;9924;50.828;6.440;2022-08-19T12:55:13;19.98;;;13.93;;
19554;SDS011;9924;50.828;6.440;2022-08-19T12:57:39;17.50;;;12.18;;
19554;SDS011;9924;50.828;6.440;2022-08-19T13:00:06;17.25;;;11.75;;
19554;SDS011;9924;50.828;6.440;2022-08-19T13:02:43;19.70;;;13.00;;
19554;SDS011;9924;50.828;6.440;2022-08-19T13:05:11;17.08;;;10.85;;
19554;SDS011;9924;50.828;6.440;2022-08-19T13:07:39;10.85;;;8.32;;
19554;SDS011;9924;50.828;6.440;2022-08-19T13:10:06;12.80;;;8.85;;
19554;SDS011;9924;50.828;6.440;2022-08-19T13:12:34;15.60;;;10.60;;
19554;SDS011;9924;50.828;6.440;2022-08-19T13:15:00;14.75;;;9.27;;
19554;SDS011;9924;50.828;6.440;2022-08-19T13:17:26;13.88;;;9.52;;
19554;SDS011;9924;50.828;6.440;2022-08-19T13:19:52;11.38;;;8.02;;
19554;SDS011;9924;50.828;6.440;2022-08-19T13:22:18;10.05;;;6.78;;
19554;SDS011;9924;50.828;6.440;2022-08-19T13:24:44;14.05;;;8.70;;
19554;SDS011;9924;50.828;6.440;2022-08-19T13:27:09;10.63;;;6.90;;
19554;SDS011;9924;50.828;6.440;2022-08-19T13:29:35;8.43;;;5.20;;
19554;SDS011;9924;50.828;6.440;2022-08-19T13:32:20;7.72;;;5.60;;
19554;SDS011;9924;50.828;6.440;2022-08-19T13:35:04;6.88;;;4.30;;
19554;SDS011;9924;50.828;6.440;2022-08-19T13:37:30;6.55;;;3.33;;
19554;SDS011;9924;50.828;6.440;2022-08-19T13:40:10;4.18;;;3.20;;
19554;SDS011;9924;50.828;6.440;2022-08-19T13:42:45;6.28;;;3.20;;
19554;SDS011;9924;50.828;6.440;2022-08-19T13:45:13;6.68;;;3.53;;
19554;SDS011;9924;50.828;6.440;2022-08-19T13:47:40;7.15;;;3.80;;
19554;SDS011;9924;50.828;6.440;2022-08-19T13:50:08;7.45;;;3.47;;
19554;SDS011;9924;50.828;6.440;2022-08-19T13:52:38;7.70;;;2.83;;
19554;SDS011;9924;50.828;6.440;2022-08-19T13:55:05;7.82;;;3.35;;
19554;SDS011;9924;50.828;6.440;2022-08-19T13:57:31;5.30;;;3.10;;
19554;SDS011;9924;50.828;6.440;2022-08-19T14:00:00;10.55;;;3.17;;
19554;SDS011;9924;50.828;6.440;2022-08-19T14:02:26;4.47;;;2.10;;
19554;SDS011;9924;50.828;6.440;2022-08-19T14:04:52;6.50;;;3.10;;
19554;SDS011;9924;50.828;6.440;2022-08-19T14:07:18;3.42;;;2.72;;
19554;SDS011;9924;50.828;6.440;2022-08-19T14:09:43;4.38;;;2.15;;
19554;SDS011;9924;50.828;6.440;2022-08-19T14:12:09;4.30;;;2.08;;
19554;SDS011;9924;50.828;6.440;2022-08-19T14:14:38;3.60;;;2.00;;
19554;SDS011;9924;50.828;6.440;2022-08-19T14:17:07;4.57;;;2.53;;
19554;SDS011;9924;50.828;6.440;2022-08-19T14:19:34;3.97;;;2.35;;
19554;SDS011;9924;50.828;6.440;2022-08-19T14:22:00;5.50;;;2.35;;
19554;SDS011;9924;50.828;6.440;2022-08-19T14:24:26;3.53;;;2.25;;
19554;SDS011;9924;50.828;6.440;2022-08-19T14:26:52;3.72;;;1.90;;
19554;SDS011;9924;50.828;6.440;2022-08-19T14:29:18;3.08;;;1.95;;
19554;SDS011;9924;50.828;6.440;2022-08-19T14:31:46;2.75;;;1.98;;
19554;SDS011;9924;50.828;6.440;2022-08-19T14:34:12;4.70;;;1.90;;
19554;SDS011;9924;50.828;6.440;2022-08-19T14:36:38;3.70;;;1.92;;
19554;SDS011;9924;50.828;6.440;2022-08-19T14:39:04;5.95;;;2.20;;
19554;SDS011;9924;50.828;6.440;2022-08-19T14:41:30;6.03;;;2.13;;
19554;SDS011;9924;50.828;6.440;2022-08-19T14:43:56;3.53;;;2.28;;
19554;SDS011;9924;50.828;6.440;2022-08-19T14:46:23;3.35;;;2.10;;
19554;SDS011;9924;50.828;6.440;2022-08-19T14:48:53;2.90;;;2.10;;
19554;SDS011;9924;50.828;6.440;2022-08-19T14:51:23;2.08;;;1.85;;